Terminal Aerodrome Forecast
Issued by NWS

Home | Current Version | Previous Version | Text Only | Print | Product List | Glossary On
Versions: 1 2 3 4 5 6 7 8 9 10 11 12 13 14 15 16 17 18 19 20 21 22 23 24 25 26 27 28
000
FTAK31 PAFA 011138
TAFABT
TAF
PABT 011138Z 0112/0212 14010KT P6SM -SHRA BKN025 OVC035
     FM011500 19008KT 3SM -RA BR BKN008 OVC018=

USA.gov is the U.S. government's official web portal to all federal, state and local government web resources and services.